Terminal Aerodrome Forecast
Issued by NWS Rapid City, SD

Home | Current Version | Previous Version | Graphics & Text | Print | Product List | Glossary On
Versions: 1 2 3 4 5 6 7 8 9 10 11 12 13 14 15 16 17
000
FTUS43 KUNR 292320
TAFRAP
TAF
KRAP 292320Z 3000/3024 13005KT P6SM SKC
     FM300300 24005KT P6SM SCT250
     FM301000 33005KT P6SM BKN250
     FM301800 05010KT P6SM BKN150
     FM302000 15009KT P6SM SCT090 BKN150=

USA.gov is the U.S. government's official web portal to all federal, state and local government web resources and services.